Time;durP1;ratioP1;P1;durP2;ratioP2;P2;SDS_P1;SDS_P2;PMS_P1;PMS_P2;Temp;Humidity;BMP_temperature;BMP_pressure;BME280_temperature;BME280_humidity;BME280_pressure;Samples;Min_cycle;Max_cycle;Signal;HPM_P1;HPM_P2
2022/10/12 00:00:49;453179.00;1.51;781.25;0.00;0.00;0.62;;;;;18.40;4.70;;;;;;2268406;61;1118;-85
2022/10/12 00:03:16;470140.00;1.57;810.43;0.00;0.00;0.62;;;;;18.40;5.00;;;;;;2268357;61;981;-86
2022/10/12 00:05:43;640015.00;2.13;1103.36;39226.00;0.13;68.55;;;;;18.40;5.00;;;;;;2268330;61;1377;-86
2022/10/12 00:08:10;394398.00;1.31;680.17;0.00;0.00;0.62;;;;;18.50;4.40;;;;;;2268333;61;1070;-86
2022/10/12 00:10:40;399054.00;1.33;688.18;0.00;0.00;0.62;;;;;18.60;3.50;;;;;;2268290;61;1132;-87
2022/10/12 00:13:08;376332.00;1.25;649.12;0.00;0.00;0.62;;;;;18.60;3.90;;;;;;2268222;61;1919;-86
2022/10/12 00:15:38;613649.00;2.05;1057.79;27392.00;0.09;48.07;;;;;18.50;4.00;;;;;;2268285;61;1375;-85
2022/10/12 00:18:05;889189.00;2.96;1537.14;86312.00;0.29;149.94;;;;;18.40;4.60;;;;;;2268228;61;1115;-85
2022/10/12 00:20:32;358056.00;1.19;617.71;0.00;0.00;0.62;;;;;18.50;4.40;;;;;;2268285;61;983;-85
2022/10/12 00:22:59;681501.00;2.27;1175.17;61765.00;0.21;107.53;;;;;18.40;4.90;;;;;;2268285;61;1079;-85
2022/10/12 00:25:25;843562.00;2.81;1457.20;73504.00;0.25;127.81;;;;;18.30;4.90;;;;;;2268197;61;1355;-85
2022/10/12 00:27:52;542767.00;1.81;935.49;0.00;0.00;0.62;;;;;18.50;4.40;;;;;;2268303;61;1054;-85
2022/10/12 00:30:19;544648.00;1.82;938.73;0.00;0.00;0.62;;;;;18.40;3.90;;;;;;2268161;61;1795;-86
2022/10/12 00:32:47;384034.00;1.28;662.36;0.00;0.00;0.62;;;;;18.50;4.60;;;;;;2268209;61;1992;-85
2022/10/12 00:35:14;627489.00;2.09;1081.71;57476.00;0.19;100.11;;;;;18.20;4.90;;;;;;2268108;61;1366;-87
2022/10/12 00:37:41;117256904.00;390.86;65304400.00;0.00;0.00;0.62;;;;;18.30;4.90;;;;;;2268165;61;1134;-85
2022/10/12 00:40:09;601814.00;2.01;1037.35;44863.00;0.15;78.30;;;;;18.40;5.50;;;;;;2268205;61;1026;-86
2022/10/12 00:42:36;478669.00;1.60;825.11;31606.00;0.11;55.36;;;;;18.50;4.10;;;;;;2268252;61;1115;-86
2022/10/12 00:45:03;749771.00;2.50;1293.66;23459.00;0.08;41.26;;;;;18.30;4.40;;;;;;2268169;61;1293;-87
2022/10/12 00:47:34;284089.00;0.95;490.57;222.00;0.00;1.00;;;;;18.40;4.80;;;;;;2268093;61;1102;-85
2022/10/12 00:50:19;525780.00;1.75;906.22;40027.00;0.13;69.94;;;;;18.50;4.00;;;;;;2268180;61;1128;-86
2022/10/12 00:52:52;898052.00;2.99;1552.70;76148.00;0.25;132.38;;;;;18.30;3.80;;;;;;2268219;61;1912;-86
2022/10/12 00:55:22;593181.00;1.98;1022.45;0.00;0.00;0.62;;;;;18.30;4.90;;;;;;2268167;61;1386;-86
2022/10/12 00:57:53;682252.00;2.27;1176.47;51299.00;0.17;89.43;;;;;18.40;4.80;;;;;;2268132;61;1139;-84
2022/10/12 01:00:20;408364.00;1.36;704.18;0.00;0.00;0.62;;;;;18.50;4.10;;;;;;2268188;61;1130;-86
2022/10/12 01:02:51;684029.00;2.28;1179.55;80966.00;0.27;140.71;;;;;18.60;3.80;;;;;;2268098;61;1124;-86
2022/10/12 01:05:20;593948.00;1.98;1023.77;0.00;0.00;0.62;;;;;18.50;3.20;;;;;;2267974;61;1308;-88
2022/10/12 01:07:47;40577.00;0.14;70.89;0.00;0.00;0.62;;;;;18.50;3.90;;;;;;2268134;61;1083;-84
2022/10/12 01:10:15;469407.00;1.56;809.17;122232.00;0.41;211.93;;;;;18.70;3.60;;;;;;2268040;61;996;-86
2022/10/12 01:12:44;406547.00;1.36;701.06;88086.00;0.29;153.00;;;;;18.70;3.20;;;;;;2268121;61;1909;-84
2022/10/12 01:15:12;385565.00;1.29;664.99;0.00;0.00;0.62;;;;;18.70;4.00;;;;;;2268049;61;1567;-85
2022/10/12 01:17:50;628737.00;2.10;1083.87;98630.00;0.33;171.21;;;;;18.70;3.90;;;;;;2268165;61;1086;-85
2022/10/12 01:20:57;560514.00;1.87;966.09;72191.00;0.24;125.55;;;;;18.60;3.60;;;;;;2268127;61;1088;-86
2022/10/12 01:24:00;241186.00;0.80;416.79;53766.00;0.18;93.70;;;;;18.30;3.50;;;;;;2268019;61;1777;-85
2022/10/12 01:27:00;197463.00;0.66;341.56;0.00;0.00;0.62;;;;;18.20;4.80;;;;;;2264031;61;1189;-85
2022/10/12 01:29:42;120205.00;0.40;208.44;0.00;0.00;0.62;;;;;18.50;4.70;;;;;;2268130;61;1050;-86
2022/10/12 01:32:19;244160.00;0.81;421.91;0.00;0.00;0.62;;;;;18.70;4.10;;;;;;2268758;61;1919;-86
2022/10/12 01:34:52;97228.00;0.32;168.79;0.00;0.00;0.62;;;;;18.70;3.20;;;;;;2264846;61;1363;-86
2022/10/12 01:37:28;230399.00;0.77;398.24;0.00;0.00;0.62;;;;;18.60;3.90;;;;;;2264804;61;1124;-87
2022/10/12 01:39:59;380053.00;1.27;655.52;0.00;0.00;0.62;;;;;18.40;4.10;;;;;;2264883;61;1116;-87
2022/10/12 01:42:31;688716.00;2.30;1187.68;63774.00;0.21;111.00;;;;;18.40;4.30;;;;;;2264834;61;1036;-87
2022/10/12 01:45:02;678460.00;2.26;1169.91;26729.00;0.09;46.92;;;;;18.30;4.90;;;;;;2268816;61;1498;-87
2022/10/12 01:47:31;199473.00;0.66;345.02;0.00;0.00;0.62;;;;;18.40;4.30;;;;;;2268787;61;1106;-85
2022/10/12 01:49:59;406782.00;1.36;701.46;0.00;0.00;0.62;;;;;18.10;4.80;;;;;;2268697;61;1013;-86
2022/10/12 01:52:29;272787.00;0.91;471.14;0.00;0.00;0.62;;;;;18.10;4.80;;;;;;2268722;61;2005;-85
2022/10/12 01:55:21;115520.00;0.39;200.35;0.00;0.00;0.62;;;;;18.20;4.90;;;;;;2268779;61;1380;-86
2022/10/12 01:58:02;306813.00;1.02;529.63;0.00;0.00;0.62;;;;;18.20;4.90;;;;;;2268850;61;958;-86
2022/10/12 02:00:35;134813.00;0.45;233.63;0.00;0.00;0.62;;;;;18.30;4.90;;;;;;2268794;61;1088;-86
2022/10/12 02:03:16;164345.00;0.55;284.53;0.00;0.00;0.62;;;;;18.50;5.10;;;;;;2268762;61;1140;-86
2022/10/12 02:05:51;489425.00;1.63;843.62;222.00;0.00;1.00;;;;;18.60;4.80;;;;;;2268642;61;1361;-86
2022/10/12 02:08:24;428708.00;1.43;739.16;82875.00;0.28;144.00;;;;;18.30;4.90;;;;;;2268662;61;1540;-85
2022/10/12 02:10:57;521588.00;1.74;899.00;49806.00;0.17;86.85;;;;;18.30;4.90;;;;;;2268777;61;1083;-86
2022/10/12 02:13:31;416811.00;1.39;718.71;38190.00;0.13;66.76;;;;;18.40;5.00;;;;;;2268675;61;1915;-87
2022/10/12 02:16:02;259671.00;0.87;448.58;0.00;0.00;0.62;;;;;18.40;4.90;;;;;;2268719;61;1093;-85
2022/10/12 02:18:33;335717.00;1.12;579.31;5632.00;0.02;10.38;;;;;18.40;5.00;;;;;;2264692;61;2199;-85
2022/10/12 02:21:00;254509.00;0.85;439.71;30552.00;0.10;53.54;;;;;18.60;4.80;;;;;;2264699;61;1047;-86
2022/10/12 02:23:28;599117.00;2.00;1032.70;65829.00;0.22;114.55;;;;;18.40;4.60;;;;;;2264704;61;1283;-85
2022/10/12 02:25:57;197849.00;0.66;342.22;0.00;0.00;0.62;;;;;18.40;5.00;;;;;;2264675;61;1052;-84
2022/10/12 02:28:28;401032.00;1.34;691.58;0.00;0.00;0.62;;;;;18.60;5.10;;;;;;2271364;55;3742;-85
2022/10/12 02:31:02;696987.00;2.32;1202.01;37666.00;0.13;65.85;;;;;18.30;5.00;;;;;;2275139;40;3611;-85
2022/10/12 02:33:37;242368.00;0.81;418.82;0.00;0.00;0.62;;;;;18.30;4.90;;;;;;2276641;61;1985;-84
2022/10/12 02:36:11;224245.00;0.75;387.65;0.00;0.00;0.62;;;;;18.10;5.00;;;;;;2276802;61;1003;-85
2022/10/12 02:38:43;217086.00;0.72;375.33;0.00;0.00;0.62;;;;;18.40;5.00;;;;;;2276754;61;1036;-84
2022/10/12 02:41:16;342725.00;1.14;591.36;0.00;0.00;0.62;;;;;18.30;4.90;;;;;;2276722;61;1130;-86
2022/10/12 02:43:47;332612.00;1.11;573.98;0.00;0.00;0.62;;;;;18.20;4.90;;;;;;2276403;61;1453;-84
2022/10/12 02:46:17;248871.00;0.83;430.01;12097.00;0.04;21.58;;;;;18.10;5.50;;;;;;2276709;61;1027;-86
2022/10/12 02:48:47;339177.00;1.13;585.26;0.00;0.00;0.62;;;;;18.30;5.00;;;;;;2276626;61;863;-86
2022/10/12 02:51:15;377500.00;1.26;651.13;0.00;0.00;0.62;;;;;18.20;5.90;;;;;;2276674;61;1047;-85
2022/10/12 02:53:43;603545.00;2.01;1040.34;46359.00;0.15;80.89;;;;;18.20;5.30;;;;;;2276518;61;1920;-86
2022/10/12 02:56:12;230694.00;0.77;398.74;0.00;0.00;0.62;;;;;18.00;6.30;;;;;;2276569;61;1052;-85
2022/10/12 02:58:43;710521.00;2.37;1225.49;110001.00;0.37;190.83;;;;;18.10;5.00;;;;;;2276523;61;1054;-85
2022/10/12 03:01:10;581569.00;1.94;1002.41;69055.00;0.23;120.13;;;;;18.10;6.00;;;;;;2276712;61;1126;-86
2022/10/12 03:03:37;517773.00;1.73;892.43;38956.00;0.13;68.08;;;;;18.30;5.90;;;;;;2276555;61;1303;-86
2022/10/12 03:06:06;574707.00;1.92;990.57;21989.00;0.07;38.71;;;;;18.10;5.70;;;;;;2289766;55;3750;-84
2022/10/12 03:08:33;352697.00;1.18;608.50;49073.00;0.16;85.58;;;;;17.90;6.60;;;;;;2276541;61;1191;-85
2022/10/12 03:11:02;174129.00;0.58;301.38;74421.00;0.25;129.40;;;;;17.90;6.40;;;;;;2276584;61;1056;-86
2022/10/12 03:13:29;225369.00;0.75;389.58;0.00;0.00;0.62;;;;;17.90;6.50;;;;;;2276406;61;1919;-85
2022/10/12 03:16:01;245401.00;0.82;424.04;0.00;0.00;0.62;;;;;17.90;6.60;;;;;;2276447;61;1155;-84
2022/10/12 03:18:28;197498.00;0.66;341.62;0.00;0.00;0.62;;;;;17.90;7.40;;;;;;2276523;61;1141;-87
2022/10/12 03:20:55;178634.00;0.60;309.14;37964.00;0.13;66.37;;;;;18.00;6.80;;;;;;2276544;61;1050;-84
2022/10/12 03:23:23;323123.00;1.08;557.67;0.00;0.00;0.62;;;;;17.80;6.60;;;;;;2276526;61;1443;-85
2022/10/12 03:25:50;146694.00;0.49;254.11;0.00;0.00;0.62;;;;;17.90;7.50;;;;;;2276605;61;1135;-85
2022/10/12 03:28:17;356458.00;1.19;614.96;33343.00;0.11;58.37;;;;;18.00;6.40;;;;;;2276509;61;1119;-85
2022/10/12 03:30:44;731262.00;2.44;1261.49;143970.00;0.48;249.41;;;;;17.90;6.90;;;;;;2276067;61;1137;-86
2022/10/12 03:33:12;782032.00;2.61;1349.81;97081.00;0.32;168.53;;;;;17.90;6.70;;;;;;2276400;61;1994;-86
2022/10/12 03:35:38;618822.00;2.06;1066.73;76518.00;0.26;133.02;;;;;18.00;6.50;;;;;;2276550;61;1198;-87
2022/10/12 03:38:05;448082.00;1.49;772.48;57953.00;0.19;100.94;;;;;17.90;7.00;;;;;;2276496;61;1064;-85
2022/10/12 03:40:34;406599.00;1.36;701.15;18710.00;0.06;33.04;;;;;17.80;6.50;;;;;;2276595;61;1084;-87
2022/10/12 03:43:01;559505.00;1.87;964.35;92443.00;0.31;160.53;;;;;17.80;7.70;;;;;;2276442;61;1035;-85
2022/10/12 03:45:28;201881.00;0.67;349.16;0.00;0.00;0.62;;;;;18.20;6.80;;;;;;2276483;61;1310;-85
2022/10/12 03:47:56;365940.00;1.22;631.26;21022.00;0.07;37.04;;;;;18.30;6.00;;;;;;2276536;61;1114;-86
2022/10/12 03:50:23;507783.00;1.69;875.22;19225.00;0.06;33.93;;;;;18.20;6.40;;;;;;2276534;61;1458;-85
2022/10/12 03:52:50;126267.00;0.42;218.89;0.00;0.00;0.62;;;;;18.10;6.20;;;;;;2276461;61;1915;-86
2022/10/12 03:55:16;625064.00;2.08;1077.52;108569.00;0.36;188.36;;;;;17.60;7.60;;;;;;2276482;61;1357;-86
2022/10/12 03:57:45;230703.00;0.77;398.76;0.00;0.00;0.62;;;;;17.40;9.00;;;;;;2276497;61;1095;-86
2022/10/12 04:00:13;207416.00;0.69;358.69;0.00;0.00;0.62;;;;;17.30;8.90;;;;;;2276306;61;917;-86
2022/10/12 04:02:40;233184.00;0.78;403.03;0.00;0.00;0.62;;;;;17.50;8.90;;;;;;2276514;61;1157;-87
2022/10/12 04:05:08;309480.00;1.03;534.22;34752.00;0.12;60.81;;;;;17.70;8.30;;;;;;2276449;61;1382;-87
2022/10/12 04:07:35;161709.00;0.54;279.98;0.00;0.00;0.62;;;;;17.80;7.90;;;;;;2276428;61;1020;-86
2022/10/12 04:10:02;94279.00;0.31;163.70;0.00;0.00;0.62;;;;;17.90;7.30;;;;;;2276416;61;1079;-86
2022/10/12 04:12:29;394681.00;1.32;680.66;26787.00;0.09;47.02;;;;;18.00;7.60;;;;;;2276425;61;1146;-86
2022/10/12 04:14:57;185191.00;0.62;320.43;0.00;0.00;0.62;;;;;18.00;6.90;;;;;;2276402;61;1932;-86
2022/10/12 04:17:24;178863.00;0.60;309.53;0.00;0.00;0.62;;;;;17.90;7.00;;;;;;2276473;61;1577;-85
2022/10/12 04:19:50;365835.00;1.22;631.08;19992.00;0.07;35.26;;;;;18.10;6.70;;;;;;2276428;61;1027;-84
2022/10/12 04:22:17;323594.00;1.08;558.48;0.00;0.00;0.62;;;;;18.00;7.40;;;;;;2276422;61;1106;-86
2022/10/12 04:24:44;461609.00;1.54;795.75;0.00;0.00;0.62;;;;;17.90;6.80;;;;;;2276370;61;1386;-86
2022/10/12 04:27:11;253151.00;0.84;437.37;0.00;0.00;0.62;;;;;17.90;7.30;;;;;;2276448;61;1087;-86
2022/10/12 04:29:38;231104.00;0.77;399.45;0.00;0.00;0.62;;;;;17.90;7.20;;;;;;2276416;61;1065;-86
2022/10/12 04:32:06;242191.00;0.81;418.52;0.00;0.00;0.62;;;;;18.00;6.90;;;;;;2276376;61;940;-85
2022/10/12 04:34:34;288750.00;0.96;498.58;31364.00;0.10;54.94;;;;;17.90;6.40;;;;;;2276052;61;1909;-86
2022/10/12 04:37:01;270884.00;0.90;467.86;0.00;0.00;0.62;;;;;17.80;7.30;;;;;;2276272;61;1184;-86
2022/10/12 04:39:28;732283.00;2.44;1263.27;196870.00;0.66;340.54;;;;;17.80;7.10;;;;;;2276305;61;930;-86
2022/10/12 04:41:55;537557.00;1.79;926.51;24357.00;0.08;42.81;;;;;17.90;6.30;;;;;;2276315;61;1159;-85
2022/10/12 04:44:22;455985.00;1.52;786.08;0.00;0.00;0.62;;;;;17.70;6.60;;;;;;2276247;61;1274;-89
2022/10/12 04:46:49;516191.00;1.72;889.70;23239.00;0.08;40.88;;;;;17.80;7.50;;;;;;2276351;61;1122;-85
2022/10/12 04:49:17;368935.00;1.23;636.41;0.00;0.00;0.62;;;;;18.00;6.70;;;;;;2276354;61;1064;-84
2022/10/12 04:51:44;217240.00;0.72;375.59;0.00;0.00;0.62;;;;;18.10;6.40;;;;;;2276204;61;1104;-83
2022/10/12 04:54:11;109338.00;0.36;189.69;0.00;0.00;0.62;;;;;18.10;7.00;;;;;;2276274;61;1991;-85
2022/10/12 04:56:38;353353.00;1.18;609.62;0.00;0.00;0.62;;;;;18.30;5.90;;;;;;2276308;61;1112;-85
2022/10/12 04:59:05;225189.00;0.75;389.27;0.00;0.00;0.62;;;;;18.30;5.90;;;;;;2276321;61;1067;-85
2022/10/12 05:01:32;260277.00;0.87;449.62;0.00;0.00;0.62;;;;;18.30;6.10;;;;;;2276287;61;1126;-85
2022/10/12 05:04:00;412310.00;1.37;710.97;76683.00;0.26;133.31;;;;;18.50;5.90;;;;;;2276237;61;1425;-85
2022/10/12 05:06:28;108830.00;0.36;188.81;0.00;0.00;0.62;;;;;18.50;5.10;;;;;;2276071;61;1129;-85
2022/10/12 05:08:55;267858.00;0.89;462.66;16562.00;0.06;29.32;;;;;18.30;5.80;;;;;;2272082;61;1018;-85
2022/10/12 05:11:22;231958.00;0.77;400.92;0.00;0.00;0.62;;;;;18.30;5.30;;;;;;2272230;61;1059;-85
2022/10/12 05:13:48;238213.00;0.79;411.68;0.00;0.00;0.62;;;;;18.40;5.00;;;;;;2272123;61;1993;-85
2022/10/12 05:16:15;314643.00;1.05;543.09;0.00;0.00;0.62;;;;;18.50;5.10;;;;;;2272750;61;1075;-85
2022/10/12 05:18:42;365378.00;1.22;630.29;0.00;0.00;0.62;;;;;18.50;5.10;;;;;;2276256;61;1099;-86
2022/10/12 05:21:09;209621.00;0.70;362.48;0.00;0.00;0.62;;;;;18.50;5.10;;;;;;2276211;61;1099;-85
2022/10/12 05:23:37;295866.00;0.99;510.81;0.00;0.00;0.62;;;;;18.60;5.30;;;;;;2276163;61;1376;-85
2022/10/12 05:26:04;171198.00;0.57;296.33;0.00;0.00;0.62;;;;;18.80;5.30;;;;;;2276223;61;1150;-85
2022/10/12 05:28:31;384100.00;1.28;662.47;0.00;0.00;0.62;;;;;18.80;5.30;;;;;;2276171;61;934;-85
2022/10/12 05:30:58;355370.00;1.18;613.09;2147.00;0.01;4.34;;;;;18.80;5.30;;;;;;2276109;61;1088;-85
2022/10/12 05:33:25;117386.00;0.39;203.57;0.00;0.00;0.62;;;;;18.80;5.30;;;;;;2276046;61;1987;-86
2022/10/12 05:35:51;544595.00;1.82;938.64;75700.00;0.25;131.61;;;;;18.50;5.10;;;;;;2276075;61;1065;-85
2022/10/12 05:38:18;347682.00;1.16;599.88;0.00;0.00;0.62;;;;;18.60;5.30;;;;;;2276233;61;1194;-85
2022/10/12 05:40:47;216342.00;0.72;374.05;0.00;0.00;0.62;;;;;18.60;5.10;;;;;;2276212;61;927;-85
2022/10/12 05:43:13;395816.00;1.32;682.61;0.00;0.00;0.62;;;;;18.70;5.20;;;;;;2276087;61;1134;-85
2022/10/12 05:45:40;382678.00;1.28;660.03;12986.00;0.04;23.12;;;;;18.90;5.40;;;;;;2276141;61;1195;-85
2022/10/12 05:48:07;298199.00;0.99;514.82;0.00;0.00;0.62;;;;;18.80;5.30;;;;;;2276179;61;1107;-85
2022/10/12 05:50:34;347038.00;1.16;598.77;0.00;0.00;0.62;;;;;18.70;5.20;;;;;;2276096;61;1016;-86
2022/10/12 05:53:01;404138.00;1.35;696.92;0.00;0.00;0.62;;;;;18.50;5.50;;;;;;2276227;61;1098;-85
2022/10/12 05:55:28;338078.00;1.13;583.37;0.00;0.00;0.62;;;;;18.80;5.30;;;;;;2276084;61;1998;-87
2022/10/12 05:57:56;211201.00;0.70;365.20;0.00;0.00;0.62;;;;;19.00;5.40;;;;;;2276132;61;1097;-85
2022/10/12 06:00:23;189385.00;0.63;327.65;0.00;0.00;0.62;;;;;19.20;4.90;;;;;;2276149;61;1099;-86
2022/10/12 06:02:50;347713.00;1.16;599.93;0.00;0.00;0.62;;;;;19.10;4.50;;;;;;2276136;61;2151;-86
2022/10/12 06:05:17;309141.00;1.03;533.63;40003.00;0.13;69.89;;;;;19.00;5.10;;;;;;2275984;61;1384;-86
2022/10/12 06:07:44;239409.00;0.80;413.73;0.00;0.00;0.62;;;;;19.00;5.40;;;;;;2276045;61;1441;-86
2022/10/12 06:10:11;319729.00;1.07;551.83;4132.00;0.01;7.78;;;;;19.10;5.50;;;;;;2276163;61;1054;-87
2022/10/12 06:12:39;309343.00;1.03;533.98;0.00;0.00;0.62;;;;;19.10;5.10;;;;;;2276156;61;1100;-86
2022/10/12 06:15:09;435213.00;1.45;750.35;0.00;0.00;0.62;;;;;19.10;5.00;;;;;;2276037;61;1985;-86
2022/10/12 06:17:35;493193.00;1.64;850.11;0.00;0.00;0.62;;;;;18.70;5.30;;;;;;2276559;61;1079;-87
2022/10/12 06:20:02;486086.00;1.62;837.87;0.00;0.00;0.62;;;;;18.40;6.00;;;;;;2276764;61;1019;-86
2022/10/12 06:22:29;295416.00;0.98;510.04;0.00;0.00;0.62;;;;;18.60;6.60;;;;;;2276830;61;1105;-85
2022/10/12 06:24:56;257235.00;0.86;444.39;0.00;0.00;0.62;;;;;18.50;6.00;;;;;;2276758;61;1293;-86
2022/10/12 06:27:24;345772.00;1.15;596.59;0.00;0.00;0.62;;;;;18.40;6.30;;;;;;2276693;61;1029;-87
2022/10/12 06:29:50;342783.00;1.14;591.46;49807.00;0.17;86.85;;;;;18.40;6.80;;;;;;2276755;61;1027;-86
2022/10/12 06:32:19;707310.00;2.36;1219.92;78486.00;0.26;136.42;;;;;18.50;6.40;;;;;;2276751;61;1051;-86
2022/10/12 06:34:45;498023.00;1.66;858.42;30671.00;0.10;53.74;;;;;18.40;6.20;;;;;;2276704;61;1919;-86
2022/10/12 06:37:12;301971.00;1.01;521.31;0.00;0.00;0.62;;;;;18.30;7.10;;;;;;2276787;61;1007;-87
2022/10/12 06:39:39;229220.00;0.76;396.21;0.00;0.00;0.62;;;;;18.40;6.60;;;;;;2276683;61;1032;-86
2022/10/12 06:42:07;238825.00;0.80;412.73;15402.00;0.05;27.31;;;;;18.50;6.60;;;;;;2276725;61;1135;-85
2022/10/12 06:44:34;560946.00;1.87;966.83;38880.00;0.13;67.95;;;;;18.70;6.00;;;;;;2276677;61;1269;-86
2022/10/12 06:47:01;299547.00;1.00;517.14;41164.00;0.14;71.90;;;;;18.60;6.20;;;;;;2276670;61;1556;-86
2022/10/12 06:49:29;495753.00;1.65;854.51;37995.00;0.13;66.42;;;;;18.60;6.30;;;;;;2276669;61;1112;-86
2022/10/12 06:51:56;448381.00;1.49;773.00;0.00;0.00;0.62;;;;;18.80;6.80;;;;;;2276613;61;1215;-86
2022/10/12 06:54:23;134165.00;0.45;232.51;0.00;0.00;0.62;;;;;19.10;5.50;;;;;;2276612;61;1919;-87
2022/10/12 06:56:50;553385.00;1.84;953.79;69305.00;0.23;120.56;;;;;19.00;6.00;;;;;;2276623;61;1466;-87
2022/10/12 06:59:18;280830.00;0.94;484.96;0.00;0.00;0.62;;;;;19.00;5.40;;;;;;2276746;61;1035;-85
2022/10/12 07:01:44;173898.00;0.58;300.98;0.00;0.00;0.62;;;;;18.80;6.60;;;;;;2276601;61;1105;-86
2022/10/12 07:04:11;240230.00;0.80;415.15;0.00;0.00;0.62;;;;;19.10;5.50;;;;;;2276701;61;1379;-86
2022/10/12 07:06:40;158581.00;0.53;274.59;0.00;0.00;0.62;;;;;19.00;5.50;;;;;;2276513;61;1119;-85
2022/10/12 07:09:06;168474.00;0.56;291.64;0.00;0.00;0.62;;;;;19.00;5.80;;;;;;2276683;61;984;-86
2022/10/12 07:11:33;421816.00;1.41;727.31;0.00;0.00;0.62;;;;;19.10;5.60;;;;;;2276656;61;1089;-86
2022/10/12 07:14:00;198219.00;0.66;342.86;0.00;0.00;0.62;;;;;19.10;5.50;;;;;;2276614;61;1919;-86
2022/10/12 07:16:27;269848.00;0.90;466.08;0.00;0.00;0.62;;;;;19.00;5.60;;;;;;2276674;61;1091;-86
2022/10/12 07:18:54;468804.00;1.56;808.13;0.00;0.00;0.62;;;;;18.90;6.30;;;;;;2276715;61;929;-84
2022/10/12 07:21:22;52138.00;0.17;90.88;0.00;0.00;0.62;;;;;18.90;6.40;;;;;;2276709;61;1193;-85
2022/10/12 07:23:50;181771.00;0.61;314.54;0.00;0.00;0.62;;;;;19.00;6.30;;;;;;2276491;61;1405;-85
2022/10/12 07:26:17;343899.00;1.15;593.38;42124.00;0.14;73.56;;;;;18.90;6.30;;;;;;2276606;61;1183;-86
2022/10/12 07:28:44;588359.00;1.96;1014.12;29300.00;0.10;51.37;;;;;19.00;5.90;;;;;;2276467;61;1045;-85
2022/10/12 07:31:11;180227.00;0.60;311.88;0.00;0.00;0.62;;;;;19.20;5.60;;;;;;2276591;61;1043;-85
2022/10/12 07:33:38;538479.00;1.79;928.10;0.00;0.00;0.62;;;;;19.30;5.70;;;;;;2276579;61;1398;-86
2022/10/12 07:36:07;411416.00;1.37;709.43;39086.00;0.13;68.31;;;;;19.70;5.40;;;;;;2276513;61;1927;-85
2022/10/12 07:38:34;307810.00;1.03;531.35;0.00;0.00;0.62;;;;;19.70;5.20;;;;;;2276605;61;1099;-87
2022/10/12 07:41:03;351321.00;1.17;606.13;0.00;0.00;0.62;;;;;19.40;5.70;;;;;;2276624;61;1122;-87
2022/10/12 07:43:32;177980.00;0.59;308.01;0.00;0.00;0.62;;;;;19.40;5.70;;;;;;2276570;61;1351;-86
2022/10/12 07:45:59;310139.00;1.03;535.35;0.00;0.00;0.62;;;;;19.40;5.70;;;;;;2276532;61;1010;-86
2022/10/12 07:48:26;22490.00;0.07;39.58;0.00;0.00;0.62;;;;;19.40;5.70;;;;;;2276459;61;997;-86
2022/10/12 07:50:53;239283.00;0.80;413.52;0.00;0.00;0.62;;;;;19.50;4.70;;;;;;2276530;61;1703;-86
2022/10/12 07:53:20;38748.00;0.13;67.72;0.00;0.00;0.62;;;;;19.80;5.30;;;;;;2276508;61;1137;-86
2022/10/12 07:55:46;325842.00;1.09;562.34;0.00;0.00;0.62;;;;;20.10;3.20;;;;;;2276469;61;2023;-86
2022/10/12 07:58:16;442892.00;1.48;763.56;144332.00;0.48;250.04;;;;;20.10;3.00;;;;;;2276529;61;1718;-87
2022/10/12 08:00:43;351141.00;1.17;605.82;0.00;0.00;0.62;;;;;20.00;2.30;;;;;;2276456;61;960;-86
2022/10/12 08:03:10;285037.00;0.95;492.20;44943.00;0.15;78.44;;;;;20.20;3.10;;;;;;2276512;61;998;-85
2022/10/12 08:05:37;106906.00;0.36;185.49;0.00;0.00;0.62;;;;;20.40;2.30;;;;;;2276428;61;1404;-84
2022/10/12 08:08:05;228755.00;0.76;395.41;0.00;0.00;0.62;;;;;20.50;1.40;;;;;;2276475;61;1118;-86
2022/10/12 08:10:35;494221.00;1.65;851.87;17857.00;0.06;31.56;;;;;20.50;1.80;;;;;;2276450;61;1431;-86
2022/10/12 08:13:02;348815.00;1.16;601.82;107136.00;0.36;185.89;;;;;20.70;1.00;;;;;;2276431;61;1706;-88
2022/10/12 08:15:31;478763.00;1.60;825.27;40212.00;0.13;70.26;;;;;20.80;1.00;;;;;;2276458;61;2012;-87
2022/10/12 08:17:58;726157.00;2.42;1252.63;102873.00;0.34;178.53;;;;;21.00;1.00;;;;;;2276435;61;1635;-86
2022/10/12 08:20:25;423792.00;1.41;730.71;0.00;0.00;0.62;;;;;21.00;1.00;;;;;;2276423;61;1147;-86
2022/10/12 08:22:54;356336.00;1.19;614.75;0.00;0.00;0.62;;;;;21.10;1.00;;;;;;2276443;61;1077;-84
2022/10/12 08:25:21;967006.00;3.22;1674.12;64786.00;0.22;112.75;;;;;21.10;1.00;;;;;;2276417;61;1792;-86
2022/10/12 08:27:48;599391.00;2.00;1033.17;62859.00;0.21;109.42;;;;;21.10;1.00;;;;;;2276496;61;1020;-85
2022/10/12 08:30:15;548138.00;1.83;944.75;0.00;0.00;0.62;;;;;20.80;1.00;;;;;;2276262;61;960;-87
2022/10/12 08:32:44;528439.00;1.76;910.80;75298.00;0.25;130.91;;;;;20.80;1.00;;;;;;2276299;61;1426;-86
2022/10/12 08:35:11;573672.00;1.91;988.78;0.00;0.00;0.62;;;;;20.80;1.00;;;;;;2276316;61;1949;-85
2022/10/12 08:37:41;442204.00;1.47;762.37;39589.00;0.13;69.18;;;;;20.70;1.00;;;;;;2276156;61;891;-84
2022/10/12 08:40:14;764260.00;2.55;1318.86;58998.00;0.20;102.74;;;;;20.80;1.00;;;;;;2275316;61;1740;-87
2022/10/12 08:42:53;515530.00;1.72;888.57;0.00;0.00;0.62;;;;;20.70;1.00;;;;;;2276442;61;1275;-86
2022/10/12 08:45:33;476871.00;1.59;822.01;0.00;0.00;0.62;;;;;20.60;1.00;;;;;;2276305;61;1449;-86
2022/10/12 08:48:11;334142.00;1.11;576.61;0.00;0.00;0.62;;;;;20.60;1.00;;;;;;2276312;61;1109;-87
2022/10/12 08:50:48;550079.00;1.83;948.10;0.00;0.00;0.62;;;;;20.90;1.00;;;;;;2275891;61;1467;-84
2022/10/12 08:53:21;1047375.00;3.49;1816.56;62336.00;0.21;108.51;;;;;20.90;1.00;;;;;;2275453;61;1090;-86
2022/10/12 08:55:51;401953.00;1.34;693.16;0.00;0.00;0.62;;;;;20.90;1.00;;;;;;2276250;61;1986;-87
2022/10/12 08:58:21;543739.00;1.81;937.17;0.00;0.00;0.62;;;;;21.00;1.00;;;;;;2276165;61;1221;-84
2022/10/12 09:00:52;908576.00;3.03;1571.19;177900.00;0.59;307.87;;;;;20.70;1.00;;;;;;2275663;61;1121;-87
2022/10/12 09:03:35;618613.00;2.06;1066.37;82871.00;0.28;144.00;;;;;20.70;1.00;;;;;;2276269;61;995;-85
2022/10/12 09:06:11;609681.00;2.03;1050.94;0.00;0.00;0.62;;;;;21.00;1.00;;;;;;2276250;61;1188;-86
2022/10/12 09:08:53;164461.00;0.55;284.72;0.00;0.00;0.62;;;;;20.90;1.00;;;;;;2276325;61;1177;-85
2022/10/12 09:11:34;590933.00;1.97;1018.57;0.00;0.00;0.62;;;;;20.90;1.00;;;;;;2276292;61;1169;-87
2022/10/12 09:14:07;245082.00;0.82;423.49;0.00;0.00;0.62;;;;;20.70;1.00;;;;;;2276318;61;1409;-85
2022/10/12 09:16:39;96272.00;0.32;167.14;0.00;0.00;0.62;;;;;20.70;1.00;;;;;;2276252;61;1933;-84
2022/10/12 09:19:16;607637.00;2.03;1047.41;0.00;0.00;0.62;;;;;20.20;1.00;;;;;;2276198;61;1068;-84
2022/10/12 09:21:47;368151.00;1.23;635.06;0.00;0.00;0.62;;;;;20.10;1.00;;;;;;2276221;61;1032;-85
2022/10/12 09:24:18;617533.00;2.06;1064.50;79685.00;0.27;138.49;;;;;20.30;1.00;;;;;;2275789;61;1441;-86
2022/10/12 09:26:50;482015.00;1.61;830.87;56158.00;0.19;97.83;;;;;20.60;1.00;;;;;;2275327;61;1405;-84
2022/10/12 09:29:25;391358.00;1.30;674.95;0.00;0.00;0.62;;;;;20.70;1.00;;;;;;2276186;61;912;-87
2022/10/12 09:32:20;177229.00;0.59;306.72;3455.00;0.01;6.61;;;;;21.00;1.00;;;;;;2275797;61;1217;-84
2022/10/12 09:34:52;145483328.00;484.94;124807928.00;67982.00;0.23;118.27;;;;;21.00;1.00;;;;;;2275566;61;2016;-85
2022/10/12 09:37:25;266345.00;0.89;460.06;23804.00;0.08;41.86;;;;;21.50;1.00;;;;;;2275564;61;1134;-85
2022/10/12 09:39:52;277570.00;0.93;479.36;65459.00;0.22;113.91;;;;;21.50;1.00;;;;;;2275955;61;1136;-86
2022/10/12 09:42:22;368766.00;1.23;636.12;77024.00;0.26;133.90;;;;;21.30;1.00;;;;;;2276099;61;1036;-85
2022/10/12 09:44:52;814111.00;2.71;1405.74;73796.00;0.25;128.32;;;;;21.00;1.00;;;;;;2276012;61;1522;-86
2022/10/12 09:47:26;499200.00;1.66;860.45;111537.00;0.37;193.48;;;;;20.80;1.00;;;;;;2276102;61;1715;-86
2022/10/12 09:49:57;576817.00;1.92;994.21;114236.00;0.38;198.14;;;;;20.80;1.00;;;;;;2276090;61;1087;-87
2022/10/12 09:52:32;261769.00;0.87;452.19;0.00;0.00;0.62;;;;;21.10;1.00;;;;;;2276524;61;1793;-87
2022/10/12 09:55:03;785440.00;2.62;1355.74;122233.00;0.41;211.93;;;;;21.20;1.00;;;;;;2276332;61;2004;-86